Time;durP1;ratioP1;P1;durP2;ratioP2;P2;SDS_P1;SDS_P2;PMS_P1;PMS_P2;Temp;Humidity;BMP_temperature;BMP_pressure;BME280_temperature;BME280_humidity;BME280_pressure;Samples;Min_cycle;Max_cycle;Signal;HPM_P1;HPM_P2
2023/06/25 00:06:38;;;;;;;5.95;4.13;;;13.30;99.90;;;;;;21144318;28;20031;-52
2023/06/25 00:16:39;;;;;;;5.47;3.90;;;13.30;99.90;;;;;;21138828;28;20282;-51
2023/06/25 00:26:45;;;;;;;8.15;4.03;;;13.20;99.90;;;;;;21145762;28;20069;-48
2023/06/25 00:36:52;;;;;;;5.00;3.63;;;13.10;99.90;;;;;;21141996;28;20053;-49
2023/06/25 00:46:53;;;;;;;6.03;4.20;;;13.00;99.90;;;;;;21111798;28;20051;-50
2023/06/25 00:56:55;;;;;;;4.82;3.22;;;13.00;99.90;;;;;;21122391;28;20442;-48
2023/06/25 01:07:02;;;;;;;4.75;3.10;;;13.00;99.90;;;;;;21117928;28;20035;-49
2023/06/25 01:17:05;;;;;;;4.90;3.40;;;13.00;99.90;;;;;;21130310;28;20496;-52
2023/06/25 01:27:07;;;;;;;3.50;2.42;;;12.90;99.90;;;;;;21137980;28;20081;-46
2023/06/25 01:37:08;;;;;;;3.35;2.30;;;12.60;99.90;;;;;;21111477;28;20077;-51
2023/06/25 01:47:10;;;;;;;2.38;1.70;;;12.50;99.90;;;;;;21000857;28;20082;-50
2023/06/25 01:57:12;;;;;;;5.60;1.60;;;12.40;99.90;;;;;;20984026;28;20035;-47
2023/06/25 02:07:14;;;;;;;1.50;1.00;;;12.20;99.90;;;;;;20969757;28;20032;-51
2023/06/25 02:17:16;;;;;;;2.88;1.30;;;12.10;99.90;;;;;;20969253;28;20033;-52
2023/06/25 02:27:19;;;;;;;1.50;1.02;;;12.00;99.90;;;;;;20983618;28;20478;-46
2023/06/25 02:37:21;;;;;;;1.85;1.38;;;11.90;99.90;;;;;;20981814;28;20029;-49
2023/06/25 02:47:23;;;;;;;1.88;1.15;;;11.80;99.90;;;;;;21045731;28;20517;-53
2023/06/25 02:57:29;;;;;;;2.90;1.90;;;11.80;99.90;;;;;;21068234;28;20047;-47
2023/06/25 03:07:31;;;;;;;3.40;2.10;;;11.60;99.90;;;;;;21044127;28;20040;-48
2023/06/25 03:17:32;;;;;;;4.13;2.45;;;11.60;99.90;;;;;;21066578;28;20469;-54
2023/06/25 03:27:36;;;;;;;4.50;2.60;;;11.50;99.90;;;;;;21079475;28;20097;-48
2023/06/25 03:37:38;;;;;;;3.83;2.70;;;11.50;99.90;;;;;;21077275;28;20493;-52
2023/06/25 03:47:40;;;;;;;4.70;3.10;;;11.50;99.90;;;;;;21076186;28;20121;-51
2023/06/25 03:57:42;;;;;;;3.97;2.83;;;11.40;99.90;;;;;;21075747;28;20074;-50
2023/06/25 04:07:44;;;;;;;3.50;2.60;;;11.50;99.90;;;;;;21076665;28;20047;-48
2023/06/25 04:17:47;;;;;;;2.67;2.00;;;11.60;99.90;;;;;;21070734;28;20165;-51
2023/06/25 04:27:49;;;;;;;4.50;2.67;;;11.70;99.90;;;;;;21072300;28;20097;-52
2023/06/25 04:37:53;;;;;;;2.65;2.08;;;11.90;99.90;;;;;;21072699;28;20043;-48
2023/06/25 04:47:55;;;;;;;3.30;2.20;;;11.90;99.90;;;;;;21075678;28;20106;-50
2023/06/25 04:57:56;;;;;;;4.30;2.40;;;12.00;99.90;;;;;;21071020;28;20062;-52
2023/06/25 05:07:58;;;;;;;2.90;1.90;;;12.10;99.90;;;;;;21080255;28;20028;-51
2023/06/25 05:17:59;;;;;;;2.65;1.80;;;12.30;99.90;;;;;;21075092;28;20039;-51
2023/06/25 05:28:02;;;;;;;3.78;1.90;;;12.40;99.90;;;;;;21069897;28;20024;-50
2023/06/25 05:38:03;;;;;;;2.92;1.50;;;12.60;99.90;;;;;;21068890;28;20032;-52
2023/06/25 05:48:06;;;;;;;2.05;1.40;;;12.80;99.90;;;;;;21068287;28;20129;-52
2023/06/25 05:58:08;;;;;;;1.65;1.40;;;13.10;99.90;;;;;;21071931;28;20082;-49
2023/06/25 06:08:09;;;;;;;2.28;1.27;;;13.40;99.90;;;;;;21066597;28;20111;-48
2023/06/25 06:18:11;;;;;;;1.77;0.82;;;14.20;99.90;;;;;;21074420;28;20028;-53
2023/06/25 06:28:12;;;;;;;1.65;0.70;;;18.90;99.90;;;;;;21064884;28;20035;-50
2023/06/25 06:38:14;;;;;;;1.23;0.70;;;22.60;99.90;;;;;;21062413;28;20043;-51
2023/06/25 06:48:15;;;;;;;2.15;0.75;;;24.90;96.20;;;;;;21068936;28;20113;-50
2023/06/25 06:58:17;;;;;;;1.10;0.90;;;26.40;94.60;;;;;;21078350;28;20036;-54
2023/06/25 07:08:22;;;;;;;1.27;1.10;;;27.40;92.70;;;;;;21081218;28;20028;-55
2023/06/25 07:18:24;;;;;;;;;;;27.80;92.10;;;;;;21084282;28;20057;-51
2023/06/25 07:28:25;;;;;;;1.42;0.90;;;25.60;92.70;;;;;;21077508;28;20334;-51
2023/06/25 07:38:27;;;;;;;2.20;1.25;;;22.80;95.40;;;;;;21074941;28;20040;-49
2023/06/25 07:48:28;;;;;;;1.25;1.00;;;21.50;97.30;;;;;;21080777;28;20097;-55
2023/06/25 07:58:30;;;;;;;1.27;1.10;;;20.80;98.70;;;;;;21074631;28;20431;-52
2023/06/25 08:08:32;;;;;;;1.20;1.02;;;21.40;97.20;;;;;;21077498;28;20028;-51
2023/06/25 08:18:34;;;;;;;1.10;0.90;;;22.80;98.20;;;;;;21074299;28;20024;-51
2023/06/25 08:28:35;;;;;;;1.80;0.90;;;25.30;95.00;;;;;;21078219;28;20054;-50
2023/06/25 08:38:37;;;;;;;1.15;1.05;;;26.50;92.80;;;;;;21073256;28;20040;-51
2023/06/25 08:48:39;;;;;;;1.35;1.00;;;26.70;92.80;;;;;;21076661;28;20042;-55
2023/06/25 08:58:40;;;;;;;1.42;1.00;;;27.10;92.50;;;;;;21070197;28;20483;-55
2023/06/25 09:08:43;;;;;;;1.23;1.10;;;27.30;91.40;;;;;;21067101;28;20043;-54
2023/06/25 09:18:44;;;;;;;1.52;1.10;;;27.30;90.80;;;;;;21073106;28;20411;-51
2023/06/25 09:28:59;;;;;;;2.67;1.13;;;26.40;91.10;;;;;;21054810;28;20089;-55
2023/06/25 09:39:00;;;;;;;1.50;1.40;;;26.40;91.30;;;;;;21077418;28;20040;-52
2023/06/25 09:49:02;;;;;;;2.40;1.48;;;26.70;90.70;;;;;;21067701;28;20035;-56
2023/06/25 09:59:05;;;;;;;1.27;1.13;;;27.00;90.60;;;;;;21066921;28;20473;-55
2023/06/25 10:09:07;;;;;;;2.22;1.08;;;27.20;88.80;;;;;;21065333;28;20089;-53
2023/06/25 10:19:18;;;;;;;1.77;1.60;;;27.10;88.10;;;;;;21072332;28;20316;-56
2023/06/25 10:29:20;;;;;;;2.33;1.65;;;27.10;89.00;;;;;;21064639;28;20058;-50
2023/06/25 10:39:22;;;;;;;1.52;1.42;;;27.10;88.10;;;;;;21124413;28;20056;-52
2023/06/25 10:49:23;;;;;;;2.75;1.70;;;26.90;89.60;;;;;;21148003;28;20031;-54
2023/06/25 10:59:25;;;;;;;3.72;1.70;;;27.10;87.20;;;;;;21147428;28;20093;-52
2023/06/25 11:09:28;;;;;;;1.92;1.70;;;26.80;87.50;;;;;;21147559;28;20035;-51
2023/06/25 11:19:30;;;;;;;1.90;1.58;;;27.00;88.70;;;;;;21146845;28;20046;-54
2023/06/25 11:29:42;;;;;;;2.05;1.63;;;27.20;87.90;;;;;;21146548;28;20537;-51
2023/06/25 11:39:48;;;;;;;2.03;1.58;;;27.10;87.20;;;;;;21152141;28;20036;-52
2023/06/25 11:49:54;;;;;;;;;;;27.50;88.70;;;;;;21158601;28;20089;-53
2023/06/25 11:59:55;;;;;;;2.22;1.60;;;27.80;89.60;;;;;;21160427;28;20269;-55
2023/06/25 12:09:57;;;;;;;1.75;1.60;;;27.60;89.40;;;;;;21158360;28;20036;-50
2023/06/25 12:19:58;;;;;;;2.88;1.80;;;27.60;89.60;;;;;;21158571;28;20053;-49
2023/06/25 12:30:00;;;;;;;4.00;1.98;;;27.50;88.90;;;;;;21158236;28;20384;-54
2023/06/25 12:40:03;;;;;;;3.45;2.00;;;27.50;89.20;;;;;;21157730;28;20128;-54
2023/06/25 12:50:06;;;;;;;2.35;2.13;;;27.30;87.60;;;;;;21156433;28;20035;-55
2023/06/25 13:00:08;;;;;;;2.45;2.00;;;27.30;88.90;;;;;;21155200;28;20028;-48
2023/06/25 13:10:10;;;;;;;2.55;2.00;;;27.50;91.00;;;;;;21152243;28;20027;-53
2023/06/25 13:20:11;;;;;;;3.83;2.50;;;27.40;89.60;;;;;;21154199;28;20039;-56
2023/06/25 13:30:13;;;;;;;4.15;2.10;;;27.40;89.20;;;;;;21152452;28;20438;-52
2023/06/25 13:40:15;;;;;;;2.53;2.10;;;27.50;88.60;;;;;;21135354;28;20052;-55
2023/06/25 13:50:17;;;;;;;4.05;2.50;;;27.60;89.50;;;;;;21151248;28;20093;-47
2023/06/25 14:00:19;;;;;;;2.70;2.17;;;27.90;88.60;;;;;;21143622;28;20028;-54
2023/06/25 14:10:20;;;;;;;2.90;2.35;;;27.80;88.90;;;;;;21148248;28;20430;-52
2023/06/25 14:20:22;;;;;;;2.85;2.55;;;28.10;86.80;;;;;;21149171;28;20032;-51
2023/06/25 14:30:25;;;;;;;2.53;2.33;;;28.80;87.40;;;;;;21147969;28;20059;-52
2023/06/25 14:40:26;;;;;;;2.72;2.53;;;29.10;83.60;;;;;;21147860;28;20554;-52
2023/06/25 14:50:28;;;;;;;3.13;2.83;;;29.40;83.80;;;;;;21148627;28;20043;-53
2023/06/25 15:00:30;;;;;;;3.30;2.97;;;29.50;83.80;;;;;;21147877;28;20541;-55
2023/06/25 15:10:32;;;;;;;4.05;2.63;;;29.80;83.50;;;;;;21147046;28;20027;-51
2023/06/25 15:20:33;;;;;;;4.50;2.80;;;29.80;83.90;;;;;;21162849;28;20038;-50
2023/06/25 15:30:35;;;;;;;3.60;3.03;;;29.60;82.60;;;;;;21143481;28;20065;-49
2023/06/25 15:40:37;;;;;;;3.80;2.60;;;29.40;83.10;;;;;;21160478;28;20112;-53
2023/06/25 15:50:39;;;;;;;3.17;2.70;;;28.70;84.80;;;;;;21160539;28;20039;-52
2023/06/25 16:00:41;;;;;;;6.07;2.70;;;28.00;85.30;;;;;;21159892;28;20080;-55
2023/06/25 16:10:43;;;;;;;3.97;2.40;;;26.90;87.60;;;;;;21159599;27;20028;-53
2023/06/25 16:20:44;;;;;;;5.07;2.70;;;24.80;90.10;;;;;;21159280;28;20042;-49
2023/06/25 16:30:46;;;;;;;4.45;2.88;;;23.60;92.50;;;;;;21157348;28;20050;-53
2023/06/25 16:40:47;;;;;;;4.88;2.90;;;22.80;93.10;;;;;;21153787;28;20028;-52
2023/06/25 16:50:49;;;;;;;5.80;3.47;;;22.60;93.80;;;;;;21156794;28;20040;-50
2023/06/25 17:00:51;;;;;;;3.70;3.28;;;21.20;95.30;;;;;;21156099;28;20049;-46
2023/06/25 17:10:52;;;;;;;6.20;3.45;;;19.50;98.30;;;;;;21148687;28;20735;-48
2023/06/25 17:20:54;;;;;;;4.25;3.55;;;18.50;99.90;;;;;;21144569;28;20074;-49
2023/06/25 17:30:56;;;;;;;8.75;4.03;;;17.90;99.90;;;;;;21142278;28;20071;-48
2023/06/25 17:40:57;;;;;;;3.95;3.10;;;17.50;99.90;;;;;;21122471;28;20075;-53
2023/06/25 17:50:59;;;;;;;5.45;3.97;;;17.10;99.90;;;;;;21139864;28;20071;-55
2023/06/25 18:01:01;;;;;;;5.68;3.47;;;16.90;99.90;;;;;;21138264;28;20056;-48
2023/06/25 18:11:21;;;;;;;4.97;3.60;;;16.40;99.90;;;;;;21137436;28;20453;-49
2023/06/25 18:21:23;;;;;;;4.78;3.85;;;16.00;99.90;;;;;;21134360;28;20085;-51
2023/06/25 18:31:28;;;;;;;5.82;4.32;;;15.70;99.90;;;;;;21133730;28;20561;-50
2023/06/25 18:41:29;;;;;;;7.70;4.40;;;15.40;99.90;;;;;;21135363;28;20071;-52
2023/06/25 18:51:31;;;;;;;7.57;4.47;;;15.20;99.90;;;;;;21154277;28;20055;-51
2023/06/25 19:01:32;;;;;;;6.10;3.55;;;14.90;99.90;;;;;;21163084;28;20059;-51
2023/06/25 19:11:34;;;;;;;4.55;3.65;;;14.70;99.90;;;;;;21160152;28;20122;-47
2023/06/25 19:21:35;;;;;;;5.38;3.78;;;14.70;99.90;;;;;;21161947;28;20067;-49
2023/06/25 19:31:37;;;;;;;6.10;3.83;;;14.60;99.90;;;;;;21158030;28;20123;-50
2023/06/25 19:41:40;;;;;;;6.43;4.45;;;14.50;99.90;;;;;;21157309;28;20067;-53
2023/06/25 19:51:42;;;;;;;8.43;4.68;;;14.30;99.90;;;;;;21162552;28;20116;-50
2023/06/25 20:01:44;;;;;;;4.93;4.18;;;14.20;99.90;;;;;;21153268;28;20068;-51
2023/06/25 20:11:45;;;;;;;5.70;4.22;;;14.30;99.90;;;;;;21146636;28;20526;-53
2023/06/25 20:21:47;;;;;;;5.55;4.20;;;14.30;99.90;;;;;;21146024;28;20128;-50
2023/06/25 20:31:49;;;;;;;8.57;4.32;;;14.20;99.90;;;;;;21145145;28;20169;-52
2023/06/25 20:41:51;;;;;;;6.63;5.18;;;14.00;99.90;;;;;;21140154;28;20168;-46
2023/06/25 20:51:53;;;;;;;8.30;5.25;;;13.90;99.90;;;;;;21141951;28;20075;-54
2023/06/25 21:01:54;;;;;;;8.75;5.20;;;13.90;99.90;;;;;;21049546;28;20151;-47
2023/06/25 21:11:56;;;;;;;5.47;4.35;;;13.80;99.90;;;;;;20807522;28;20112;-51
2023/06/25 21:21:57;;;;;;;6.07;4.50;;;13.80;99.90;;;;;;20806646;28;20498;-55
2023/06/25 21:31:59;;;;;;;6.47;4.32;;;13.70;99.90;;;;;;20803722;28;20138;-49
2023/06/25 21:42:01;;;;;;;6.45;5.10;;;13.70;99.90;;;;;;20806044;28;20134;-44
2023/06/25 21:52:09;;;;;;;9.95;4.88;;;13.60;99.90;;;;;;20797156;28;20088;-53
2023/06/25 22:02:11;;;;;;;6.65;5.07;;;13.70;99.90;;;;;;20799504;28;20130;-51
2023/06/25 22:12:12;;;;;;;6.82;4.53;;;13.60;99.90;;;;;;20803171;28;20112;-53
2023/06/25 22:22:14;;;;;;;8.73;5.82;;;13.60;99.90;;;;;;20803937;28;20077;-52
2023/06/25 22:32:16;;;;;;;5.22;3.65;;;13.50;99.90;;;;;;20805454;28;20148;-51
2023/06/25 22:42:17;;;;;;;6.32;4.32;;;13.40;99.90;;;;;;20805187;28;20073;-53
2023/06/25 22:52:19;;;;;;;6.40;4.65;;;13.40;99.90;;;;;;20803005;28;20454;-50
2023/06/25 23:02:21;;;;;;;7.97;4.70;;;13.40;99.90;;;;;;20805508;28;20556;-45
2023/06/25 23:12:22;;;;;;;4.72;3.50;;;13.20;99.90;;;;;;20806582;28;20474;-51
2023/06/25 23:22:24;;;;;;;6.43;4.57;;;13.10;99.90;;;;;;20801701;28;20525;-51
2023/06/25 23:32:25;;;;;;;5.10;3.58;;;13.10;99.90;;;;;;20807819;28;20065;-53
2023/06/25 23:42:27;;;;;;;8.27;4.00;;;13.10;99.90;;;;;;20897338;28;20080;-49
2023/06/25 23:52:29;;;;;;;8.35;4.38;;;13.00;99.90;;;;;;21035158;28;20140;-48
